Terminal Aerodrome Forecast
Issued by NWS Charleston, SC

Home | Current Version | Previous Version | Text Only | Print | Product List | Glossary On
Versions: 1 2 3 4 5 6 7 8 9 10 11 12 13 14
986
FTUS42 KCHS 281121
TAFCHS
TAF
KCHS 281121Z 2812/0112 VRB04KT P6SM SCT015 BKN025
     FM281400 19007KT P6SM SCT025 BKN035
     FM281800 19012KT P6SM BKN040
     FM010000 18006KT P6SM SCT015 BKN070
     FM010700 20007KT 6SM BR SCT008 BKN015=

USA.gov is the U.S. government's official web portal to all federal, state and local government web resources and services.